createdAt,value
2022-09-27T00:01:43.465Z,75.90
2022-09-27T00:04:12.930Z,76.00
2022-09-27T00:06:41.280Z,75.80
2022-09-27T00:09:09.623Z,75.80
2022-09-27T00:11:39.440Z,75.80
2022-09-27T00:14:08.716Z,76.00
2022-09-27T00:16:39.510Z,76.10
2022-09-27T00:19:11.795Z,76.20
2022-09-27T00:21:40.084Z,76.40
2022-09-27T00:24:08.413Z,76.20
2022-09-27T00:26:36.918Z,76.20
2022-09-27T00:29:05.339Z,76.20
2022-09-27T00:31:34.165Z,76.30
2022-09-27T00:34:03.935Z,77.10
2022-09-27T00:36:34.732Z,76.50
2022-09-27T00:39:03.345Z,76.60
2022-09-27T00:41:33.487Z,76.50
2022-09-27T00:44:04.537Z,76.50
2022-09-27T00:46:37.766Z,76.50
2022-09-27T00:49:13.581Z,76.60
2022-09-27T00:51:45.922Z,76.60
2022-09-27T00:54:18.893Z,76.50
2022-09-27T00:56:47.907Z,76.60
2022-09-27T00:59:21.368Z,76.30
2022-09-27T01:01:51.307Z,76.50
2022-09-27T01:04:24.074Z,76.50
2022-09-27T01:06:53.975Z,76.60
2022-09-27T01:09:23.387Z,76.60
2022-09-27T01:11:59.413Z,76.50
2022-09-27T01:14:47.536Z,76.80
2022-09-27T01:17:27.723Z,77.00
2022-09-27T01:20:20.560Z,76.80
2022-09-27T01:23:06.827Z,76.90
2022-09-27T01:25:53.518Z,76.70
2022-09-27T01:28:33.065Z,76.50
2022-09-27T01:31:07.554Z,76.10
2022-09-27T01:33:47.576Z,76.30
2022-09-27T01:36:27.164Z,77.20
2022-09-27T01:39:12.658Z,76.50
2022-09-27T01:41:48.936Z,76.60
2022-09-27T01:44:24.930Z,76.30
2022-09-27T01:46:57.198Z,76.00
2022-09-27T01:49:30.697Z,75.80
2022-09-27T01:52:02.303Z,75.90
2022-09-27T01:54:36.657Z,75.80
2022-09-27T01:57:07.427Z,75.80
2022-09-27T01:59:41.811Z,75.70
2022-09-27T02:02:12.691Z,75.80
2022-09-27T02:04:43.814Z,75.70
2022-09-27T02:07:16.782Z,75.80
2022-09-27T02:09:50.242Z,75.80
2022-09-27T02:12:22.220Z,75.80
2022-09-27T02:14:54.156Z,75.80
2022-09-27T02:17:32.510Z,75.80
2022-09-27T02:20:09.402Z,75.90
2022-09-27T02:22:40.536Z,75.70
2022-09-27T02:25:16.188Z,75.70
2022-09-27T02:27:53.969Z,75.80
2022-09-27T02:30:22.383Z,75.80
2022-09-27T02:32:52.823Z,75.60
2022-09-27T02:35:25.823Z,75.70
2022-09-27T02:37:54.874Z,75.70
2022-09-27T02:40:23.504Z,75.50
2022-09-27T02:42:52.055Z,75.60
2022-09-27T02:45:21.892Z,75.70
2022-09-27T02:48:03.824Z,75.70
2022-09-27T02:50:56.945Z,76.00
2022-09-27T02:53:38.100Z,76.10
2022-09-27T02:56:15.514Z,75.80
2022-09-27T02:58:52.707Z,75.80
2022-09-27T03:01:32.743Z,75.90
2022-09-27T03:04:09.206Z,75.70
2022-09-27T03:06:39.655Z,75.60
2022-09-27T03:09:14.498Z,75.40
2022-09-27T03:11:42.763Z,75.30
2022-09-27T03:14:11.051Z,75.30
2022-09-27T03:16:39.297Z,75.20
2022-09-27T03:19:09.867Z,75.30
2022-09-27T03:21:39.246Z,75.40
2022-09-27T03:24:08.074Z,75.30
2022-09-27T03:26:36.253Z,75.20
2022-09-27T03:29:04.788Z,75.10
2022-09-27T03:31:33.194Z,75.20
2022-09-27T03:34:01.469Z,75.20
2022-09-27T03:36:31.190Z,75.20
2022-09-27T03:38:59.420Z,75.40
2022-09-27T03:41:27.647Z,75.30
2022-09-27T03:43:57.867Z,75.40
2022-09-27T03:46:26.169Z,75.50
2022-09-27T03:48:54.475Z,75.40
2022-09-27T03:51:22.633Z,75.50
2022-09-27T03:53:52.321Z,75.50
2022-09-27T03:56:20.635Z,75.50
2022-09-27T03:58:48.786Z,75.60
2022-09-27T04:01:17.226Z,75.50
2022-09-27T04:03:45.677Z,75.50
2022-09-27T04:06:14.027Z,76.30
2022-09-27T04:08:42.146Z,75.60
2022-09-27T04:11:11.890Z,75.60
2022-09-27T04:13:40.106Z,75.70
2022-09-27T04:16:08.434Z,75.50
2022-09-27T04:18:36.606Z,75.40
2022-09-27T04:21:04.984Z,75.40
2022-09-27T04:23:33.861Z,75.50
2022-09-27T04:26:01.978Z,75.40
2022-09-27T04:28:32.150Z,75.50
2022-09-27T04:31:00.892Z,75.50
2022-09-27T04:33:29.221Z,75.70
2022-09-27T04:36:14.741Z,75.60
2022-09-27T04:38:43.099Z,75.70
2022-09-27T04:41:11.524Z,75.60
2022-09-27T04:43:41.182Z,75.70
2022-09-27T04:46:09.509Z,75.80
2022-09-27T04:48:38.200Z,75.70
2022-09-27T04:51:06.684Z,75.50
2022-09-27T04:53:35.370Z,75.60
2022-09-27T04:56:06.153Z,75.60
2022-09-27T04:58:35.285Z,75.60
2022-09-27T05:01:05.770Z,75.70
2022-09-27T05:03:34.106Z,75.80
2022-09-27T05:06:03.018Z,75.70
2022-09-27T05:08:31.254Z,75.70
2022-09-27T05:10:59.649Z,75.80
2022-09-27T05:13:27.958Z,75.90
2022-09-27T05:15:56.083Z,75.90
2022-09-27T05:18:25.580Z,76.10
2022-09-27T05:20:53.955Z,76.20
2022-09-27T05:23:22.365Z,76.20
2022-09-27T05:25:50.593Z,76.40
2022-09-27T05:28:18.768Z,76.30
2022-09-27T05:30:47.586Z,76.40
2022-09-27T05:33:15.967Z,76.40
2022-09-27T05:35:52.129Z,76.40
2022-09-27T05:38:20.687Z,76.40
2022-09-27T05:40:50.858Z,76.30
2022-09-27T05:43:20.053Z,76.30
2022-09-27T05:45:48.522Z,76.40
2022-09-27T05:48:17.178Z,76.40
2022-09-27T05:50:47.020Z,76.50
2022-09-27T05:53:15.315Z,76.70
2022-09-27T05:55:43.534Z,76.60
2022-09-27T05:58:13.816Z,76.50
2022-09-27T06:00:41.981Z,76.50
2022-09-27T06:03:12.535Z,76.50
2022-09-27T06:05:41.741Z,76.60
2022-09-27T06:08:13.161Z,76.60
2022-09-27T06:10:42.505Z,76.80
2022-09-27T06:13:13.330Z,76.80
2022-09-27T06:15:42.890Z,76.80
2022-09-27T06:18:12.934Z,76.80
2022-09-27T06:20:43.118Z,76.90
2022-09-27T06:23:14.325Z,76.90
2022-09-27T06:25:42.994Z,76.90
2022-09-27T06:28:11.904Z,76.60
2022-09-27T06:30:41.650Z,76.60
2022-09-27T06:33:12.855Z,76.60
2022-09-27T06:35:42.054Z,76.60
2022-09-27T06:38:14.237Z,76.60
2022-09-27T06:40:45.578Z,76.50
2022-09-27T06:43:16.094Z,76.50
2022-09-27T06:45:44.381Z,76.40
2022-09-27T06:48:14.318Z,76.30
2022-09-27T06:50:44.627Z,76.30
2022-09-27T06:53:18.817Z,76.40
2022-09-27T06:55:46.939Z,76.40
2022-09-27T06:58:32.455Z,76.30
2022-09-27T07:01:00.805Z,76.40
2022-09-27T07:03:35.660Z,76.40
2022-09-27T07:06:06.736Z,76.30
2022-09-27T07:08:36.551Z,76.30
2022-09-27T07:11:06.959Z,76.30
2022-09-27T07:13:40.249Z,76.20
2022-09-27T07:16:08.440Z,76.20
2022-09-27T07:18:36.946Z,76.20
2022-09-27T07:21:05.317Z,75.70
2022-09-27T07:23:34.938Z,75.70
2022-09-27T07:26:05.745Z,75.80
2022-09-27T07:28:34.261Z,75.90
2022-09-27T07:31:03.682Z,75.90
2022-09-27T07:33:32.945Z,75.90
2022-09-27T07:36:01.359Z,76.00
2022-09-27T07:38:29.496Z,76.10
2022-09-27T07:40:59.294Z,76.10
2022-09-27T07:43:27.615Z,75.90
2022-09-27T07:45:57.986Z,75.80
2022-09-27T07:48:26.163Z,75.50
2022-09-27T07:50:54.540Z,75.30
2022-09-27T07:53:24.238Z,75.20
2022-09-27T07:55:53.360Z,75.20
2022-09-27T07:58:23.098Z,75.00
2022-09-27T08:00:51.452Z,74.60
2022-09-27T08:03:19.979Z,74.50
2022-09-27T08:05:49.147Z,74.50
2022-09-27T08:08:17.964Z,74.30
2022-09-27T08:10:46.753Z,74.20
2022-09-27T08:13:20.482Z,74.30
2022-09-27T08:15:52.736Z,74.50
2022-09-27T08:18:22.215Z,74.50
2022-09-27T08:20:50.444Z,74.50
2022-09-27T08:23:18.602Z,74.40
2022-09-27T08:25:53.445Z,74.30
2022-09-27T08:28:22.845Z,73.80
2022-09-27T08:30:52.846Z,73.80
2022-09-27T08:33:21.606Z,73.30
2022-09-27T08:35:49.913Z,72.90
2022-09-27T08:38:18.099Z,72.20
2022-09-27T08:40:54.652Z,71.90
2022-09-27T08:43:34.558Z,71.80
2022-09-27T08:46:16.257Z,71.70
2022-09-27T08:48:47.839Z,71.60
2022-09-27T08:51:16.575Z,71.80
2022-09-27T08:53:52.874Z,72.00
2022-09-27T08:56:22.598Z,71.90
2022-09-27T08:58:54.185Z,72.00
2022-09-27T09:01:28.520Z,72.00
2022-09-27T09:04:00.874Z,72.00
2022-09-27T09:06:34.793Z,71.90
2022-09-27T09:09:12.272Z,71.90
2022-09-27T09:12:04.566Z,71.90
2022-09-27T09:15:00.996Z,72.50
2022-09-27T09:17:46.040Z,71.70
2022-09-27T09:20:23.666Z,71.80
2022-09-27T09:23:10.816Z,71.70
2022-09-27T09:25:45.096Z,71.70
2022-09-27T09:28:29.934Z,71.70
2022-09-27T09:31:09.283Z,72.40
2022-09-27T09:33:44.628Z,71.40
2022-09-27T09:36:19.148Z,71.00
2022-09-27T09:38:51.999Z,71.10
2022-09-27T09:41:23.870Z,70.90
2022-09-27T09:43:56.480Z,70.60
2022-09-27T09:46:32.206Z,70.30
2022-09-27T09:49:07.484Z,70.10
2022-09-27T09:51:40.837Z,70.30
2022-09-27T09:54:14.526Z,69.90
2022-09-27T09:56:49.215Z,70.60
2022-09-27T09:59:22.076Z,70.00
2022-09-27T10:01:50.699Z,69.80
2022-09-27T10:04:24.376Z,69.50
2022-09-27T10:06:53.618Z,69.20
2022-09-27T10:09:25.555Z,69.60
2022-09-27T10:11:54.119Z,69.70
2022-09-27T10:14:23.515Z,69.70
2022-09-27T10:16:56.911Z,69.50
2022-09-27T10:19:30.164Z,69.10
2022-09-27T10:22:03.881Z,69.70
2022-09-27T10:24:53.439Z,69.00
2022-09-27T10:27:21.891Z,68.70
2022-09-27T10:29:58.742Z,68.80
2022-09-27T10:32:33.024Z,68.10
2022-09-27T10:35:33.009Z,68.20
2022-09-27T10:38:22.320Z,68.10
2022-09-27T10:40:53.737Z,68.40
2022-09-27T10:43:29.773Z,68.80
2022-09-27T10:46:07.889Z,68.40
2022-09-27T10:48:37.470Z,68.30
2022-09-27T10:51:09.180Z,68.60
2022-09-27T10:53:38.224Z,68.40
2022-09-27T10:56:06.976Z,68.10
2022-09-27T10:58:38.725Z,67.90
2022-09-27T11:01:09.088Z,68.00
2022-09-27T11:03:47.131Z,67.80
2022-09-27T11:06:29.424Z,67.80
2022-09-27T11:09:12.316Z,67.00
2022-09-27T11:11:40.501Z,67.30
2022-09-27T11:14:20.584Z,67.80
2022-09-27T11:17:06.422Z,66.60
2022-09-27T11:19:50.777Z,66.70
2022-09-27T11:22:39.119Z,66.60
2022-09-27T11:25:16.958Z,66.20
2022-09-27T11:28:00.264Z,66.00
2022-09-27T11:30:36.445Z,65.40
2022-09-27T11:33:32.941Z,65.40
2022-09-27T11:36:10.503Z,64.60
2022-09-27T11:38:53.884Z,64.70
2022-09-27T11:41:33.344Z,64.40
2022-09-27T11:44:28.394Z,65.90
2022-09-27T11:47:05.087Z,64.60
2022-09-27T11:50:01.398Z,65.00
2022-09-27T11:52:40.412Z,65.20
2022-09-27T11:55:24.908Z,65.20
2022-09-27T11:58:04.727Z,64.00
2022-09-27T12:00:44.146Z,63.40
2022-09-27T12:03:33.384Z,63.30
2022-09-27T12:06:08.700Z,62.80
2022-09-27T12:08:51.341Z,62.70
2022-09-27T12:11:25.806Z,62.70
2022-09-27T12:13:59.007Z,63.20
2022-09-27T12:16:28.937Z,63.70
2022-09-27T12:18:57.872Z,64.00
2022-09-27T12:21:28.202Z,64.20
2022-09-27T12:23:58.856Z,64.50
2022-09-27T12:26:32.817Z,64.90
2022-09-27T12:29:06.206Z,64.70
2022-09-27T12:31:36.873Z,64.70
2022-09-27T12:34:17.534Z,65.40
2022-09-27T12:36:52.705Z,65.60
2022-09-27T12:39:27.826Z,65.00
2022-09-27T12:42:06.161Z,65.10
2022-09-27T12:44:39.004Z,65.00
2022-09-27T12:47:13.283Z,65.00
2022-09-27T12:49:55.441Z,65.30
2022-09-27T12:52:31.248Z,65.10
2022-09-27T12:55:35.443Z,65.70
2022-09-27T12:58:32.227Z,65.20
2022-09-27T13:01:03.956Z,65.50
2022-09-27T13:03:49.180Z,65.80
2022-09-27T13:06:56.962Z,65.10
2022-09-27T13:09:58.376Z,65.40
2022-09-27T13:12:29.360Z,64.60
2022-09-27T13:15:04.447Z,64.80
2022-09-27T13:17:53.246Z,64.00
2022-09-27T13:20:51.701Z,63.60
2022-09-27T13:24:02.292Z,62.90
2022-09-27T13:26:48.634Z,63.60
2022-09-27T13:29:42.120Z,63.70
2022-09-27T13:32:22.447Z,63.70
2022-09-27T13:34:53.729Z,64.10
2022-09-27T13:37:59.570Z,63.80
2022-09-27T13:40:31.617Z,63.40
2022-09-27T13:43:41.616Z,63.60
2022-09-27T13:46:18.009Z,64.40
2022-09-27T13:48:54.386Z,64.60
2022-09-27T13:51:35.092Z,64.60
2022-09-27T13:54:10.118Z,65.10
2022-09-27T13:56:56.340Z,65.40
2022-09-27T13:59:35.414Z,65.40
2022-09-27T14:02:18.578Z,65.80
2022-09-27T14:04:52.343Z,66.40
2022-09-27T14:07:26.032Z,66.40
2022-09-27T14:09:56.133Z,66.80
2022-09-27T14:12:29.523Z,66.70
2022-09-27T14:14:58.102Z,66.80
2022-09-27T14:17:27.195Z,66.90
2022-09-27T14:19:56.858Z,66.80
2022-09-27T14:22:26.240Z,66.60
2022-09-27T14:24:55.410Z,66.50
2022-09-27T14:27:26.228Z,66.40
2022-09-27T14:29:56.736Z,66.00
2022-09-27T14:32:27.039Z,66.20
2022-09-27T14:35:29.852Z,66.30
2022-09-27T14:38:02.455Z,66.30
2022-09-27T14:40:42.423Z,66.40
2022-09-27T14:43:17.092Z,66.30
2022-09-27T14:45:48.306Z,66.60
2022-09-27T14:48:23.811Z,66.70
2022-09-27T14:51:04.800Z,66.40
2022-09-27T14:53:36.541Z,66.50
2022-09-27T14:56:08.065Z,67.00
2022-09-27T14:58:47.146Z,66.70
2022-09-27T15:01:17.781Z,66.80
2022-09-27T15:03:49.981Z,66.80
2022-09-27T15:06:20.535Z,66.70
2022-09-27T15:08:50.370Z,66.40
2022-09-27T15:11:19.640Z,66.40
2022-09-27T15:13:51.863Z,66.00
2022-09-27T15:16:23.325Z,65.40
2022-09-27T15:19:01.380Z,65.00
2022-09-27T15:21:33.389Z,64.30
2022-09-27T15:24:01.952Z,64.20
2022-09-27T15:26:38.598Z,64.30
2022-09-27T15:29:09.667Z,63.90
2022-09-27T15:31:38.374Z,64.20
2022-09-27T15:34:07.389Z,64.10
2022-09-27T15:36:55.431Z,64.80
2022-09-27T15:39:30.695Z,64.30
2022-09-27T15:42:07.231Z,64.40
2022-09-27T15:44:46.974Z,64.50
2022-09-27T15:47:51.275Z,64.50
2022-09-27T15:50:36.993Z,64.90
2022-09-27T15:53:07.199Z,65.00
2022-09-27T15:55:40.481Z,65.40
2022-09-27T15:58:14.784Z,65.70
2022-09-27T16:00:53.043Z,65.70
2022-09-27T16:03:21.303Z,65.80
2022-09-27T16:05:49.661Z,65.70
2022-09-27T16:08:19.220Z,65.70
2022-09-27T16:10:51.805Z,65.80
2022-09-27T16:13:20.131Z,65.80
2022-09-27T16:15:49.483Z,65.90
2022-09-27T16:18:17.888Z,65.70
2022-09-27T16:20:46.196Z,65.70
2022-09-27T16:23:14.519Z,65.70
2022-09-27T16:25:43.961Z,65.80
2022-09-27T16:28:12.495Z,66.10
2022-09-27T16:30:40.617Z,66.30
2022-09-27T16:33:08.734Z,66.30
2022-09-27T16:35:40.119Z,66.40
2022-09-27T16:38:08.449Z,66.60
2022-09-27T16:40:37.748Z,66.70
2022-09-27T16:43:08.198Z,66.90
2022-09-27T16:45:36.648Z,66.90
2022-09-27T16:48:05.598Z,67.00
2022-09-27T16:50:51.263Z,67.00
2022-09-27T16:53:19.375Z,67.10
2022-09-27T16:55:47.652Z,67.10
2022-09-27T16:58:17.205Z,67.20
2022-09-27T17:00:45.393Z,66.60
2022-09-27T17:03:13.655Z,66.90
2022-09-27T17:05:41.744Z,67.10
2022-09-27T17:08:10.072Z,68.00
2022-09-27T17:10:38.750Z,67.50
2022-09-27T17:13:07.335Z,67.60
2022-09-27T17:15:38.721Z,67.50
2022-09-27T17:18:07.000Z,67.50
2022-09-27T17:20:35.208Z,67.50
2022-09-27T17:23:03.411Z,67.60
2022-09-27T17:25:31.560Z,67.80
2022-09-27T17:28:02.099Z,68.20
2022-09-27T17:30:30.352Z,68.60
2022-09-27T17:32:59.807Z,69.00
2022-09-27T17:35:27.928Z,69.20
2022-09-27T17:37:56.004Z,69.20
2022-09-27T17:40:24.138Z,69.20
2022-09-27T17:42:52.754Z,69.20
2022-09-27T17:45:21.542Z,69.20
2022-09-27T17:48:10.583Z,69.20
2022-09-27T17:50:46.723Z,69.30
2022-09-27T17:53:14.851Z,69.40
2022-09-27T17:55:43.082Z,69.40
2022-09-27T17:58:11.149Z,69.80
2022-09-27T18:00:39.711Z,69.90
2022-09-27T18:03:07.885Z,70.00
2022-09-27T18:05:37.562Z,70.20
2022-09-27T18:08:07.657Z,70.40
2022-09-27T18:10:35.827Z,70.50
2022-09-27T18:13:05.869Z,70.40
2022-09-27T18:15:37.345Z,70.60
2022-09-27T18:18:05.847Z,70.70
2022-09-27T18:20:35.198Z,70.80
2022-09-27T18:23:03.289Z,71.10
2022-09-27T18:25:35.104Z,71.10
2022-09-27T18:28:03.461Z,70.80
2022-09-27T18:30:31.861Z,70.80
2022-09-27T18:32:59.952Z,71.10
2022-09-27T18:35:28.980Z,71.10
2022-09-27T18:37:57.029Z,71.00
2022-09-27T18:40:44.877Z,70.90
2022-09-27T18:43:15.292Z,70.80
2022-09-27T18:45:43.460Z,70.60
2022-09-27T18:48:11.692Z,70.60
2022-09-27T18:50:39.919Z,70.50
2022-09-27T18:53:08.357Z,70.50
2022-09-27T18:55:38.416Z,70.60
2022-09-27T18:58:06.551Z,70.70
2022-09-27T19:00:36.440Z,70.70
2022-09-27T19:03:04.759Z,71.00
2022-09-27T19:05:33.018Z,71.10
2022-09-27T19:08:01.221Z,71.20
2022-09-27T19:10:29.297Z,71.30
2022-09-27T19:12:57.653Z,71.30
2022-09-27T19:15:26.681Z,71.40
2022-09-27T19:17:56.473Z,71.20
2022-09-27T19:20:24.582Z,71.30
2022-09-27T19:22:52.691Z,71.30
2022-09-27T19:25:20.791Z,72.00
2022-09-27T19:27:49.011Z,71.40
2022-09-27T19:30:17.212Z,71.30
2022-09-27T19:32:47.059Z,71.30
2022-09-27T19:35:16.950Z,71.40
2022-09-27T19:37:45.177Z,71.50
2022-09-27T19:40:13.287Z,71.40
2022-09-27T19:42:41.395Z,71.50
2022-09-27T19:45:12.398Z,71.40
2022-09-27T19:47:40.610Z,71.60
2022-09-27T19:50:09.622Z,71.70
2022-09-27T19:52:39.339Z,71.80
2022-09-27T19:55:08.702Z,71.90
2022-09-27T19:57:36.947Z,72.00
2022-09-27T20:00:06.866Z,72.00
2022-09-27T20:02:35.208Z,72.10
2022-09-27T20:05:03.888Z,72.20
2022-09-27T20:07:34.921Z,72.20
2022-09-27T20:10:05.078Z,72.20
2022-09-27T20:12:33.278Z,72.40
2022-09-27T20:15:01.420Z,72.40
2022-09-27T20:17:33.560Z,72.50
2022-09-27T20:20:01.817Z,72.70
2022-09-27T20:22:29.962Z,72.40
2022-09-27T20:24:58.070Z,72.50
2022-09-27T20:27:27.639Z,72.60
2022-09-27T20:29:57.158Z,72.60
2022-09-27T20:32:28.102Z,72.50
2022-09-27T20:34:56.704Z,72.70
2022-09-27T20:37:25.568Z,72.70
2022-09-27T20:39:56.664Z,72.70
2022-09-27T20:42:24.950Z,72.70
2022-09-27T20:44:55.021Z,72.70
2022-09-27T20:47:23.397Z,72.70
2022-09-27T20:49:51.472Z,72.60
2022-09-27T20:52:19.952Z,72.60
2022-09-27T20:54:48.057Z,72.60
2022-09-27T20:57:16.168Z,72.60
2022-09-27T20:59:44.267Z,72.60
2022-09-27T21:02:13.867Z,72.60
2022-09-27T21:04:42.085Z,72.70
2022-09-27T21:07:10.219Z,72.60
2022-09-27T21:09:38.808Z,72.70
2022-09-27T21:12:11.358Z,72.90
2022-09-27T21:14:39.502Z,72.90
2022-09-27T21:17:09.272Z,72.90
2022-09-27T21:19:38.787Z,73.20
2022-09-27T21:22:06.967Z,73.30
2022-09-27T21:24:35.091Z,73.30
2022-09-27T21:27:05.986Z,73.40
2022-09-27T21:29:34.220Z,73.50
2022-09-27T21:32:02.871Z,73.50
2022-09-27T21:34:31.030Z,73.70
2022-09-27T21:37:00.523Z,73.70
2022-09-27T21:39:28.625Z,73.80
2022-09-27T21:41:56.911Z,73.80
2022-09-27T21:44:25.056Z,74.10
2022-09-27T21:46:53.189Z,74.20
2022-09-27T21:49:21.539Z,74.20
2022-09-27T21:51:49.610Z,74.30
2022-09-27T21:54:19.097Z,74.40
2022-09-27T21:56:47.311Z,74.50
2022-09-27T21:59:18.124Z,74.30
2022-09-27T22:01:47.636Z,74.30
2022-09-27T22:04:16.017Z,74.40
2022-09-27T22:06:44.972Z,74.30
2022-09-27T22:09:16.042Z,74.50
2022-09-27T22:11:47.645Z,74.60
2022-09-27T22:14:16.671Z,74.60
2022-09-27T22:16:45.006Z,74.50
2022-09-27T22:19:15.145Z,74.30
2022-09-27T22:21:43.727Z,74.20
2022-09-27T22:24:14.819Z,74.00
2022-09-27T22:26:47.530Z,74.00
2022-09-27T22:29:15.764Z,73.90
2022-09-27T22:31:43.992Z,73.70
2022-09-27T22:34:17.341Z,73.60
2022-09-27T22:36:45.252Z,73.70
2022-09-27T22:39:13.593Z,73.60
2022-09-27T22:41:41.861Z,73.20
2022-09-27T22:44:11.423Z,73.40
2022-09-27T22:46:39.542Z,73.50
2022-09-27T22:49:07.736Z,73.40
2022-09-27T22:51:35.917Z,73.50
2022-09-27T22:54:04.363Z,73.60
2022-09-27T22:56:32.485Z,73.70
2022-09-27T22:59:00.583Z,73.90
2022-09-27T23:01:30.334Z,74.00
2022-09-27T23:04:00.124Z,74.00
2022-09-27T23:06:28.369Z,74.00
2022-09-27T23:08:58.504Z,73.90
2022-09-27T23:11:26.657Z,74.00
2022-09-27T23:13:54.829Z,74.00
2022-09-27T23:16:25.189Z,74.00
2022-09-27T23:18:56.652Z,74.10
2022-09-27T23:21:26.197Z,74.20
2022-09-27T23:23:56.345Z,74.10
2022-09-27T23:26:26.170Z,74.20
2022-09-27T23:28:54.942Z,74.20
2022-09-27T23:31:24.108Z,74.10
2022-09-27T23:33:54.514Z,74.10
2022-09-27T23:36:26.254Z,74.10
2022-09-27T23:38:55.884Z,74.00
2022-09-27T23:41:24.127Z,74.10
2022-09-27T23:43:53.404Z,74.10
2022-09-27T23:46:22.434Z,74.10
2022-09-27T23:48:50.730Z,74.20
2022-09-27T23:51:20.206Z,74.40
2022-09-27T23:53:48.336Z,74.50
2022-09-27T23:56:17.900Z,74.60
2022-09-27T23:58:47.419Z,74.70
